Atlanta, New York
Current Conditions -  °F | °C
As of 9:26 AM on Saturday 20 Dec 2014 (Local Time) from KDSV Reporting Station
Overcast Overcast  
Wind Chill: 22°   Ceiling: 2300
Heat Index: 28°   Visibility: 10mi
Dew Point: 19°   Wind: 6mph
Humidity: 69%   Direction: 280°W
Pressure: 30.29"   Gusts: NA
Location:  42.55°N, 77.47°W
Report Text: KDSV 201426Z AUTO 28005KT 10SM OVC023 M02/M07 A3029 RMK AO2 T10221072 $
Loading
Personal Weather Stations






























Interactive Weather Map New forecast layout! Learn more

10-Day Weather Forecast

Advertisements
Track Severe Weather on mobile